Time;durP1;ratioP1;P1;durP2;ratioP2;P2;SDS_P1;SDS_P2;PMS_P1;PMS_P2;Temp;Humidity;BMP_temperature;BMP_pressure;BME280_temperature;BME280_humidity;BME280_pressure;Samples;Min_cycle;Max_cycle;Signal;HPM_P1;HPM_P2
2021/12/15 00:01:42;;;;;;;55.00;27.00;;;;;;;6.54;100.00;102242.28;7401817;19;20019;-68
2021/12/15 00:04:11;;;;;;;51.28;24.05;;;;;;;6.51;100.00;102240.47;7398866;19;20027;-67
2021/12/15 00:06:43;;;;;;;51.60;26.65;;;;;;;6.49;100.00;102240.44;7398532;19;20087;-67
2021/12/15 00:09:14;;;;;;;58.05;27.20;;;;;;;6.50;100.00;102247.41;7401558;19;20018;-67
2021/12/15 00:11:45;;;;;;;51.42;26.27;;;;;;;6.50;100.00;102243.94;7398412;19;20077;-67
2021/12/15 00:14:18;;;;;;;52.83;25.98;;;;;;;6.50;100.00;102246.53;7400133;19;20045;-67
2021/12/15 00:16:46;;;;;;;51.83;26.80;;;;;;;6.50;100.00;102249.16;7401263;19;20070;-67
2021/12/15 00:19:15;;;;;;;53.33;25.90;;;;;;;6.49;100.00;102255.22;7400913;19;20022;-67
2021/12/15 00:21:46;;;;;;;53.55;26.02;;;;;;;6.50;100.00;102246.53;7400673;19;20021;-67
2021/12/15 00:24:15;;;;;;;55.55;25.73;;;;;;;6.49;100.00;102247.38;7399339;19;20025;-67
2021/12/15 00:26:43;;;;;;;55.40;26.52;;;;;;;6.49;100.00;102244.78;7400502;19;20083;-67
2021/12/15 00:29:12;;;;;;;54.55;27.92;;;;;;;6.49;100.00;102239.56;7397950;19;20023;-67
2021/12/15 00:31:42;;;;;;;50.55;27.08;;;;;;;6.49;100.00;102244.78;7397877;19;20092;-68
2021/12/15 00:34:11;;;;;;;48.88;25.77;;;;;;;6.49;100.00;102239.56;7399037;19;20498;-68
2021/12/15 00:36:43;;;;;;;49.97;26.25;;;;;;;6.48;100.00;102243.91;7400224;19;20078;-68
2021/12/15 00:39:19;;;;;;;53.08;25.92;;;;;;;6.46;100.00;102248.19;7400598;19;20026;-68
2021/12/15 00:41:47;;;;;;;51.13;26.42;;;;;;;6.47;100.00;102244.75;7397261;19;20546;-68
2021/12/15 00:44:16;;;;;;;48.70;24.02;;;;;;;6.48;100.00;102258.66;7398630;19;20086;-68
2021/12/15 00:46:48;;;;;;;57.67;27.63;;;;;;;6.47;100.00;102252.56;7397575;19;20015;-68
2021/12/15 00:49:17;;;;;;;51.78;27.20;;;;;;;6.46;100.00;102250.81;7399981;19;20018;-68
2021/12/15 00:51:45;;;;;;;56.60;27.88;;;;;;;6.45;100.00;102243.84;7396590;19;20018;-68
2021/12/15 00:54:17;;;;;;;60.55;27.40;;;;;;;6.44;100.00;102252.50;7398731;19;20086;-68
2021/12/15 00:56:45;;;;;;;53.00;26.98;;;;;;;6.44;100.00;102246.41;7397689;19;20035;-68
2021/12/15 00:59:14;;;;;;;55.53;28.33;;;;;;;6.44;100.00;102256.84;7399070;19;20547;-68
2021/12/15 01:01:44;;;;;;;55.75;27.10;;;;;;;6.43;100.00;102250.75;7397271;19;20082;-68
2021/12/15 01:04:15;;;;;;;59.95;28.48;;;;;;;6.43;100.00;102249.88;7397098;19;20422;-68
2021/12/15 01:06:47;;;;;;;56.78;28.23;;;;;;;6.41;100.00;102255.06;7399735;19;20019;-68
2021/12/15 01:09:23;;;;;;;54.22;27.55;;;;;;;6.40;100.00;102252.44;7399219;19;20010;-68
2021/12/15 01:12:13;;;;;;;57.67;28.15;;;;;;;6.38;100.00;102260.19;7399506;19;20018;-68
2021/12/15 01:20:19;;;;;;;57.40;28.83;;;;;;;6.37;100.00;102261.06;7398352;19;20032;-68
2021/12/15 01:22:53;;;;;;;59.45;27.83;;;;;;;6.36;100.00;102254.97;7399147;19;20073;-68
2021/12/15 01:25:30;;;;;;;65.68;28.95;;;;;;;6.36;100.00;102265.38;7396429;19;20082;-68
2021/12/15 01:27:58;;;;;;;63.72;28.05;;;;;;;6.35;100.00;102266.22;7399064;19;20019;-67
2021/12/15 01:30:31;;;;;;;65.65;28.67;;;;;;;6.32;100.00;102260.97;7398236;19;20077;-67
2021/12/15 01:33:02;;;;;;;66.15;28.90;;;;;;;6.34;100.00;102268.81;7399772;19;20018;-67
2021/12/15 01:35:32;;;;;;;64.80;28.73;;;;;;;6.33;100.00;102267.94;7396469;19;20018;-67
2021/12/15 01:38:00;;;;;;;67.90;28.83;;;;;;;6.34;100.00;102276.63;7396192;19;20085;-68
2021/12/15 01:40:39;;;;;;;65.78;27.90;;;;;;;6.32;100.00;102278.34;7397407;19;20102;-68
2021/12/15 01:43:22;;;;;;;69.45;29.55;;;;;;;6.31;100.00;102272.22;7398457;19;20074;-67
2021/12/15 01:48:37;;;;;;;64.68;28.70;;;;;;;6.30;100.00;102282.63;7398053;19;20486;-67
2021/12/15 01:51:08;;;;;;;69.00;29.83;;;;;;;6.30;100.00;102287.84;7395536;19;20494;-67
2021/12/15 01:53:43;;;;;;;63.97;28.15;;;;;;;6.31;100.00;102285.28;7397514;19;20018;-67
2021/12/15 01:56:15;;;;;;;66.43;28.98;;;;;;;6.31;100.00;102282.66;7397247;19;20493;-67
2021/12/15 01:58:43;;;;;;;64.10;29.55;;;;;;;6.30;100.00;102286.09;7397956;19;20021;-67
2021/12/15 02:01:12;;;;;;;64.18;27.48;;;;;;;6.31;100.00;102287.00;7395494;19;20022;-67
2021/12/15 02:03:42;;;;;;;72.65;30.35;;;;;;;6.29;100.00;102279.16;7395222;19;20077;-67
2021/12/15 02:06:13;;;;;;;73.90;30.23;;;;;;;6.28;100.00;102280.00;7397260;19;20015;-67
2021/12/15 02:08:43;;;;;;;74.93;29.10;;;;;;;6.28;100.00;102282.63;7396897;19;20021;-67
2021/12/15 02:11:15;;;;;;;79.25;31.88;;;;;;;6.27;100.00;102280.84;7397028;19;20023;-68
2021/12/15 02:13:43;;;;;;;70.53;29.35;;;;;;;6.25;100.00;102276.44;7398123;19;20522;-67
2021/12/15 02:16:12;;;;;;;80.50;31.85;;;;;;;6.25;100.00;102269.50;7395260;19;20015;-67
2021/12/15 02:18:45;;;;;;;81.22;30.33;;;;;;;6.24;100.00;102270.34;7396860;19;20018;-67
2021/12/15 02:21:19;;;;;;;79.25;31.23;;;;;;;6.24;100.00;102267.72;7396079;19;20038;-67
2021/12/15 02:23:53;;;;;;;78.10;31.55;;;;;;;6.22;100.00;102261.63;7395988;19;20021;-67
2021/12/15 02:26:24;;;;;;;81.47;31.80;;;;;;;6.21;100.00;102266.81;7397131;19;20044;-68
2021/12/15 02:28:56;;;;;;;74.95;30.90;;;;;;;6.19;100.00;102265.06;7395329;19;20027;-67
2021/12/15 02:31:39;;;;;;;81.88;31.80;;;;;;;6.21;100.00;102272.03;7394893;19;20040;-67
2021/12/15 02:34:21;;;;;;;80.03;32.00;;;;;;;6.19;100.00;102266.75;7394954;19;20022;-67
2021/12/15 02:39:39;;;;;;;77.82;31.38;;;;;;;6.17;100.00;102269.34;7393609;19;20025;-67
2021/12/15 02:42:08;;;;;;;86.63;32.17;;;;;;;6.18;100.00;102262.44;7394593;19;20022;-67
2021/12/15 02:44:41;;;;;;;95.25;34.55;;;;;;;6.15;100.00;102255.38;7394641;19;20025;-67
2021/12/15 02:47:10;;;;;;;85.45;32.10;;;;;;;6.17;100.00;102264.13;7396326;19;20015;-67
2021/12/15 02:49:39;;;;;;;82.78;32.75;;;;;;;6.19;100.00;102266.75;7395475;19;20390;-67
2021/12/15 02:52:11;;;;;;;84.10;31.98;;;;;;;6.18;100.00;102272.84;7395804;19;20015;-67
2021/12/15 02:54:40;;;;;;;90.82;34.38;;;;;;;6.18;100.00;102270.25;7395146;19;20102;-68
2021/12/15 02:57:11;;;;;;;89.25;33.88;;;;;;;6.18;100.00;102276.31;7395648;19;20018;-67
2021/12/15 02:59:51;;;;;;;96.00;30.60;;;;;;;6.18;100.00;102273.72;7395994;19;20018;-67
2021/12/15 03:02:44;;;;;;;80.07;32.00;;;;;;;6.19;100.00;102267.66;7394322;19;20018;-67
2021/12/15 03:05:17;;;;;;;75.85;32.40;;;;;;;6.18;100.00;102265.03;7393286;19;20032;-67
2021/12/15 03:08:00;;;;;;;83.78;33.17;;;;;;;6.18;100.00;102272.84;7393482;19;20409;-67
2021/12/15 03:15:55;;;;;;;83.82;32.30;;;;;;;6.17;100.00;102274.56;7401451;19;20019;-67
2021/12/15 03:18:26;;;;;;;80.97;30.85;;;;;;;6.17;100.00;102281.50;7400670;19;20014;-68
2021/12/15 03:20:59;;;;;;;81.43;33.15;;;;;;;6.15;100.00;102276.25;7401702;19;20073;-68
2021/12/15 03:23:38;;;;;;;80.20;30.27;;;;;;;6.16;100.00;102271.94;7404364;19;20019;-67
2021/12/15 03:26:06;;;;;;;84.57;31.45;;;;;;;6.15;100.00;102276.25;7403012;19;20040;-68
2021/12/15 03:34:26;;;;;;;82.20;30.08;;;;;;;6.13;100.00;102270.13;7395239;19;20480;-68
2021/12/15 03:39:46;;;;;;;83.85;30.83;;;;;;;6.12;100.00;102270.09;7398389;19;20018;-68
2021/12/15 03:42:18;;;;;;;82.65;31.33;;;;;;;6.13;100.00;102272.75;7400202;19;20039;-68
2021/12/15 03:44:48;;;;;;;76.55;29.23;;;;;;;6.10;100.00;102266.56;7399997;19;20522;-68
2021/12/15 03:47:21;;;;;;;83.15;32.25;;;;;;;6.13;100.00;102272.75;7401499;19;20505;-68
2021/12/15 03:49:49;;;;;;;78.57;29.73;;;;;;;6.13;100.00;102264.91;7402279;19;20078;-68
2021/12/15 03:52:18;;;;;;;77.53;30.27;;;;;;;6.13;100.00;102254.50;7401756;19;20082;-68
2021/12/15 03:54:50;;;;;;;77.10;30.25;;;;;;;6.13;100.00;102257.09;7398813;19;20022;-68
2021/12/15 03:57:20;;;;;;;79.22;30.65;;;;;;;6.13;100.00;102254.50;7401618;19;20018;-68
2021/12/15 03:59:49;;;;;;;82.15;31.15;;;;;;;6.14;100.00;102265.78;7402258;19;20030;-68
2021/12/15 04:02:21;;;;;;;77.07;29.40;;;;;;;6.15;100.00;102264.94;7399111;19;20086;-67
2021/12/15 04:04:51;;;;;;;80.65;30.88;;;;;;;6.13;100.00;102262.31;7397825;19;20010;-68
2021/12/15 04:07:21;;;;;;;73.00;29.08;;;;;;;6.15;100.00;102263.22;7398457;19;20018;-68
2021/12/15 04:09:54;;;;;;;71.05;27.40;;;;;;;6.16;100.00;102272.78;7401483;19;20086;-68
2021/12/15 04:12:23;;;;;;;75.40;28.45;;;;;;;6.15;100.00;102271.03;7400690;19;20010;-68
2021/12/15 04:15:17;;;;;;;79.43;29.38;;;;;;;6.16;100.00;102266.72;7399258;19;20399;-67
2021/12/15 04:17:45;;;;;;;78.93;29.30;;;;;;;6.16;100.00;102269.31;7400445;19;20396;-70
2021/12/15 04:20:16;;;;;;;73.78;29.30;;;;;;;6.16;100.00;102269.31;7400681;19;20015;-68
2021/12/15 04:22:45;;;;;;;75.22;28.60;;;;;;;6.16;100.00;102271.94;7398683;19;20081;-68
2021/12/15 04:25:21;;;;;;;65.07;27.60;;;;;;;6.15;100.00;102263.22;7397623;19;20480;-69
2021/12/15 04:27:56;;;;;;;72.03;29.83;;;;;;;6.15;100.00;102272.75;7398339;19;20094;-69
2021/12/15 04:30:26;;;;;;;68.55;27.58;;;;;;;6.13;100.00;102262.31;7400119;19;20070;-69
2021/12/15 04:32:57;;;;;;;70.10;27.70;;;;;;;6.15;100.00;102268.41;7397856;19;20018;-69
2021/12/15 04:35:26;;;;;;;73.60;27.75;;;;;;;6.15;100.00;102276.25;7398072;19;20015;-69
2021/12/15 04:37:55;;;;;;;72.72;28.10;;;;;;;6.15;100.00;102285.78;7399875;19;20078;-69
2021/12/15 04:40:26;;;;;;;68.85;26.77;;;;;;;6.17;100.00;102284.13;7399871;19;20525;-67
2021/12/15 04:42:58;;;;;;;63.10;27.13;;;;;;;6.19;100.00;102277.19;7397518;19;20483;-68
2021/12/15 04:45:27;;;;;;;69.35;27.50;;;;;;;6.19;100.00;102279.78;7397561;19;20019;-68
2021/12/15 04:47:57;;;;;;;66.18;27.42;;;;;;;6.21;100.00;102278.13;7399745;19;20007;-68
2021/12/15 04:50:28;;;;;;;66.88;26.02;;;;;;;6.21;100.00;102283.31;7399711;19;20015;-68
2021/12/15 04:53:00;;;;;;;64.82;25.90;;;;;;;6.23;100.00;102281.63;7397561;19;20082;-68
2021/12/15 04:55:33;;;;;;;61.30;25.50;;;;;;;6.22;100.00;102281.59;7397442;19;20018;-68
2021/12/15 04:58:03;;;;;;;60.03;24.88;;;;;;;6.22;100.00;102274.66;7397642;19;20014;-68
2021/12/15 05:00:35;;;;;;;60.72;26.13;;;;;;;6.21;100.00;102275.50;7398762;19;20070;-68
2021/12/15 05:03:04;;;;;;;60.20;24.83;;;;;;;6.21;100.00;102285.94;7397022;19;20085;-68
2021/12/15 05:05:34;;;;;;;59.92;24.73;;;;;;;6.21;100.00;102285.06;7396221;19;20027;-68
2021/12/15 05:08:04;;;;;;;55.20;24.73;;;;;;;6.20;100.00;102284.16;7398817;19;20014;-68
2021/12/15 05:10:36;;;;;;;56.15;24.80;;;;;;;6.20;100.00;102291.97;7396583;19;20011;-68
2021/12/15 05:13:05;;;;;;;57.50;24.23;;;;;;;6.18;100.00;102286.75;7398746;19;20032;-68
2021/12/15 05:15:35;;;;;;;50.95;23.10;;;;;;;6.19;100.00;102296.34;7396391;19;20421;-68
2021/12/15 05:18:04;;;;;;;51.17;24.67;;;;;;;6.21;100.00;102303.31;7398312;19;20419;-68
2021/12/15 05:20:34;;;;;;;53.63;23.95;;;;;;;6.21;100.00;102298.09;7398256;19;20027;-67
2021/12/15 05:23:04;;;;;;;61.22;24.05;;;;;;;6.20;100.00;102305.00;7396136;19;20044;-68
2021/12/15 05:25:36;;;;;;;55.80;24.98;;;;;;;6.23;100.00;102310.31;7396591;19;20031;-68
2021/12/15 05:28:05;;;;;;;60.42;23.95;;;;;;;6.25;100.00;102310.34;7396374;19;20090;-68
2021/12/15 05:30:33;;;;;;;49.92;22.30;;;;;;;6.24;100.00;102312.03;7395582;19;20090;-68
2021/12/15 05:33:02;;;;;;;47.28;22.05;;;;;;;6.25;100.00;102319.03;7397656;19;20015;-68
2021/12/15 05:35:33;;;;;;;49.83;23.08;;;;;;;6.25;100.00;102313.81;7396003;19;20018;-68
2021/12/15 05:38:02;;;;;;;49.33;21.50;;;;;;;6.25;100.00;102313.81;7394484;19;20019;-68
2021/12/15 05:40:31;;;;;;;50.45;22.40;;;;;;;6.26;100.00;102326.00;7397744;19;20428;-68
2021/12/15 05:43:03;;;;;;;44.75;21.20;;;;;;;6.25;100.00;102319.03;7395302;19;20036;-68
2021/12/15 05:45:33;;;;;;;47.70;22.52;;;;;;;6.25;100.00;102324.25;7395248;19;20023;-67
2021/12/15 05:48:03;;;;;;;46.58;21.83;;;;;;;6.25;100.00;102325.97;7395956;19;20074;-67
2021/12/15 05:50:33;;;;;;;52.80;23.48;;;;;;;6.27;100.00;102332.09;7396929;19;20090;-68
2021/12/15 05:53:03;;;;;;;50.92;22.38;;;;;;;6.24;100.00;102327.69;7397104;19;20035;-67
2021/12/15 05:55:31;;;;;;;47.45;20.58;;;;;;;6.27;100.00;102321.66;7395173;19;20045;-67
2021/12/15 05:58:04;;;;;;;45.80;20.70;;;;;;;6.27;100.00;102322.56;7394546;19;20031;-69
2021/12/15 06:00:37;;;;;;;43.13;18.45;;;;;;;6.27;100.00;102317.34;7395835;19;20018;-69
2021/12/15 06:03:06;;;;;;;44.92;22.17;;;;;;;6.27;100.00;102322.56;7394727;19;20090;-68
2021/12/15 06:05:43;;;;;;;42.70;20.88;;;;;;;6.28;100.00;102324.31;7394074;19;20015;-69
2021/12/15 06:08:11;;;;;;;45.63;20.67;;;;;;;6.29;100.00;102327.78;7393697;19;20018;-68
2021/12/15 06:10:43;;;;;;;46.05;21.33;;;;;;;6.28;100.00;102324.31;7394065;19;20082;-68
2021/12/15 06:13:15;;;;;;;44.33;20.70;;;;;;;6.29;100.00;102333.91;7396291;19;20019;-68
2021/12/15 06:15:46;;;;;;;48.60;22.45;;;;;;;6.30;100.00;102333.03;7394238;19;20070;-68
2021/12/15 06:18:17;;;;;;;51.65;23.75;;;;;;;6.30;100.00;102338.25;7396578;19;20091;-68
2021/12/15 06:20:46;;;;;;;42.25;19.95;;;;;;;6.30;100.00;102333.03;7393516;19;20019;-68
2021/12/15 06:23:18;;;;;;;47.00;20.30;;;;;;;6.31;100.00;102328.72;7394912;19;20082;-67
2021/12/15 06:25:48;;;;;;;42.60;20.70;;;;;;;6.29;100.00;102328.69;7393506;19;20038;-69
2021/12/15 06:28:20;;;;;;;41.22;19.35;;;;;;;6.30;100.00;102330.44;7395855;19;20032;-68
2021/12/15 06:30:48;;;;;;;41.65;21.45;;;;;;;6.30;100.00;102332.16;7395291;19;20031;-68
2021/12/15 06:33:18;;;;;;;44.00;20.88;;;;;;;6.31;100.00;102340.00;7394765;19;20078;-68
2021/12/15 06:35:53;;;;;;;42.00;18.92;;;;;;;6.31;100.00;102332.19;7393691;19;20087;-67
2021/12/15 06:38:22;;;;;;;42.33;21.02;;;;;;;6.31;100.00;102326.13;7395956;19;20070;-66
2021/12/15 06:40:51;;;;;;;38.95;19.73;;;;;;;6.31;100.00;102332.19;7393228;19;20022;-68
2021/12/15 06:43:23;;;;;;;39.47;19.30;;;;;;;6.29;100.00;102331.31;7393088;19;20422;-67
2021/12/15 06:46:12;;;;;;;36.15;18.05;;;;;;;6.29;100.00;102336.50;7393662;19;20035;-67
2021/12/15 06:59:28;;;;;;;37.63;18.55;;;;;;;6.28;100.00;102349.47;7395465;19;20035;-68
2021/12/15 07:01:56;;;;;;;38.20;18.50;;;;;;;6.29;100.00;102352.16;7394752;19;20074;-68
2021/12/15 07:04:26;;;;;;;40.60;20.85;;;;;;;6.29;100.00;102352.16;7393776;19;20014;-68
2021/12/15 07:06:55;;;;;;;42.80;23.92;;;;;;;6.29;100.00;102341.72;7393002;19;20134;-68
2021/12/15 07:09:25;;;;;;;39.13;18.33;;;;;;;6.28;100.00;102342.56;7392833;19;20186;-68
2021/12/15 07:11:54;;;;;;;37.28;18.40;;;;;;;6.30;100.00;102345.19;7394791;19;20082;-68
2021/12/15 07:14:23;;;;;;;41.42;19.17;;;;;;;6.29;100.00;102351.25;7393925;19;20082;-68
2021/12/15 07:16:57;;;;;;;36.72;18.88;;;;;;;6.28;100.00;102349.47;7394384;19;20087;-68
2021/12/15 07:19:51;;;;;;;37.13;18.60;;;;;;;6.27;100.00;102348.63;7394292;19;20416;-68
2021/12/15 07:22:31;;;;;;;35.13;18.05;;;;;;;6.28;100.00;102359.91;7392689;19;20026;-68
2021/12/15 07:25:00;;;;;;;38.78;17.88;;;;;;;6.27;100.00;102356.44;7393256;19;20021;-68
2021/12/15 07:27:29;;;;;;;35.45;18.27;;;;;;;6.27;100.00;102360.75;7393876;19;20085;-69
2021/12/15 07:29:57;;;;;;;38.72;18.52;;;;;;;6.27;100.00;102369.47;7393629;19;20074;-68
2021/12/15 07:32:29;;;;;;;39.75;18.92;;;;;;;6.26;100.00;102375.53;7391977;19;20417;-68
2021/12/15 07:34:57;;;;;;;37.15;18.63;;;;;;;6.27;100.00;102369.47;7393090;19;20078;-68
2021/12/15 07:37:26;;;;;;;39.80;19.15;;;;;;;6.26;100.00;102370.31;7393749;19;20018;-68
2021/12/15 07:39:58;;;;;;;37.13;19.17;;;;;;;6.27;100.00;102372.06;7392076;19;20082;-68
2021/12/15 07:42:32;;;;;;;37.13;18.67;;;;;;;6.27;100.00;102374.69;7392679;19;20015;-68
2021/12/15 07:45:01;;;;;;;;;;;;;;;6.25;100.00;102376.38;7393021;19;20351;-67
2021/12/15 07:47:32;;;;;;;36.28;17.58;;;;;;;6.25;100.00;102378.97;7391057;19;19919;-68
2021/12/15 07:50:02;;;;;;;38.70;18.23;;;;;;;6.26;100.00;102372.06;7393359;19;20018;-68
2021/12/15 07:52:31;;;;;;;35.33;17.88;;;;;;;6.25;100.00;102378.09;7393074;19;20078;-68
2021/12/15 07:54:59;;;;;;;42.50;20.33;;;;;;;6.25;100.00;102381.56;7392520;19;20018;-68
2021/12/15 07:57:29;;;;;;;38.22;18.42;;;;;;;6.27;100.00;102384.22;7391820;19;20078;-68
2021/12/15 07:59:59;;;;;;;40.53;19.45;;;;;;;6.23;100.00;102372.88;7393201;19;20019;-68
2021/12/15 08:02:28;;;;;;;38.13;17.95;;;;;;;6.27;100.00;102382.50;7400871;19;20101;-68
2021/12/15 08:04:59;;;;;;;39.00;19.38;;;;;;;6.27;100.00;102379.91;7397434;19;20090;-68
2021/12/15 08:07:28;;;;;;;36.70;19.40;;;;;;;6.28;100.00;102381.66;7400879;19;20091;-68
2021/12/15 08:09:56;;;;;;;39.05;19.67;;;;;;;6.28;100.00;102381.66;7400593;19;20547;-68
2021/12/15 08:12:26;;;;;;;41.30;20.42;;;;;;;6.29;100.00;102385.13;7400298;19;20015;-68
2021/12/15 08:14:54;;;;;;;36.13;18.08;;;;;;;6.29;100.00;102383.44;7398444;19;20045;-68
2021/12/15 08:17:23;;;;;;;34.42;18.30;;;;;;;6.27;100.00;102384.22;7398022;19;20086;-68
2021/12/15 08:19:51;;;;;;;37.15;18.35;;;;;;;6.31;100.00;102386.06;7397716;19;20428;-68
2021/12/15 08:22:22;;;;;;;38.15;18.63;;;;;;;6.32;100.00;102387.84;7399920;19;20089;-68
2021/12/15 08:24:51;;;;;;;37.08;18.77;;;;;;;6.32;100.00;102393.03;7398743;19;20031;-68
2021/12/15 08:27:20;;;;;;;41.50;21.80;;;;;;;6.34;100.00;102392.22;7400056;19;20011;-68
2021/12/15 08:29:48;;;;;;;35.75;17.92;;;;;;;6.34;100.00;102394.84;7399519;19;20484;-69
2021/12/15 08:32:17;;;;;;;32.28;17.00;;;;;;;6.37;100.00;102396.63;7399719;19;20027;-68
2021/12/15 08:34:45;;;;;;;35.35;17.40;;;;;;;6.38;100.00;102392.28;7396665;19;20035;-69
2021/12/15 08:37:15;;;;;;;30.83;17.17;;;;;;;6.40;100.00;102391.47;7399791;19;20098;-68
2021/12/15 08:39:48;;;;;;;33.28;18.42;;;;;;;6.42;100.00;102389.78;7399746;19;20011;-68
2021/12/15 08:42:17;;;;;;;35.97;18.75;;;;;;;6.44;100.00;102397.63;7397346;19;20093;-68
2021/12/15 08:44:46;;;;;;;34.08;18.00;;;;;;;6.47;100.00;102397.69;7397856;19;20031;-68
2021/12/15 08:47:15;;;;;;;28.02;15.50;;;;;;;6.48;100.00;102405.56;7398880;19;20014;-68
2021/12/15 08:49:43;;;;;;;32.03;17.33;;;;;;;6.51;100.00;102404.75;7397140;19;20022;-68
2021/12/15 08:52:12;;;;;;;33.40;17.38;;;;;;;6.53;100.00;102408.25;7398942;19;20085;-68
2021/12/15 08:54:42;;;;;;;32.85;17.85;;;;;;;6.55;100.00;102413.53;7397532;19;20083;-68
2021/12/15 08:57:13;;;;;;;35.25;16.42;;;;;;;6.58;100.00;102411.84;7397172;19;20082;-68
2021/12/15 08:59:42;;;;;;;31.95;16.95;;;;;;;6.59;100.00;102412.75;7399529;19;20102;-68
2021/12/15 09:02:10;;;;;;;32.30;15.90;;;;;;;6.61;100.00;102413.63;7399250;19;20078;-68
2021/12/15 09:04:39;;;;;;;32.58;16.42;;;;;;;6.62;100.00;102418.91;7396561;19;20094;-68
2021/12/15 09:07:08;;;;;;;33.35;18.10;;;;;;;6.63;100.00;102409.34;7398581;19;20014;-68
2021/12/15 09:09:36;;;;;;;32.28;16.90;;;;;;;6.68;100.00;102419.03;7396077;19;20031;-69
2021/12/15 09:12:06;;;;;;;32.58;15.43;;;;;;;6.71;100.00;102420.84;7396689;19;20019;-68
2021/12/15 09:14:37;;;;;;;30.52;14.88;;;;;;;6.68;100.00;102402.50;7398175;19;20082;-69
2021/12/15 09:17:06;;;;;;;34.67;17.73;;;;;;;6.74;100.00;102412.19;7398578;19;20033;-68
2021/12/15 09:19:35;;;;;;;33.22;15.68;;;;;;;6.78;100.00;102408.78;7396640;19;20018;-68
2021/12/15 09:22:03;;;;;;;30.73;16.80;;;;;;;6.78;100.00;102409.66;7398488;19;20487;-68
2021/12/15 09:24:33;;;;;;;32.08;17.27;;;;;;;6.83;100.00;102409.75;7396057;19;20074;-68
2021/12/15 09:27:02;;;;;;;30.52;16.42;;;;;;;6.84;100.00;102414.13;7397657;19;20081;-68
2021/12/15 09:29:30;;;;;;;31.05;16.15;;;;;;;6.87;100.00;102410.72;7398108;19;20059;-68
2021/12/15 09:32:02;;;;;;;28.92;15.40;;;;;;;6.91;100.00;102416.00;7397834;19;20093;-68
2021/12/15 09:34:31;;;;;;;30.65;15.65;;;;;;;6.94;100.00;102420.44;7396564;19;20479;-67
2021/12/15 09:37:22;;;;;;;25.65;15.02;;;;;;;6.97;100.00;102416.13;7397576;19;20015;-67
2021/12/15 09:39:50;;;;;;;26.42;15.38;;;;;;;6.99;100.00;102409.22;7396931;19;20479;-68
2021/12/15 09:42:24;;;;;;;27.77;15.80;;;;;;;7.00;100.00;102408.38;7397344;19;20011;-68
2021/12/15 09:44:58;;;;;;;26.58;14.00;;;;;;;7.03;99.67;102409.28;7396235;19;20022;-67
2021/12/15 09:47:45;;;;;;;26.70;15.20;;;;;;;7.06;99.93;102411.97;7397690;19;20018;-68
2021/12/15 10:04:07;;;;;;;25.42;13.88;;;;;;;7.22;99.28;102400.09;7395933;19;20070;-68
2021/12/15 10:07:03;;;;;;;25.95;15.07;;;;;;;7.27;99.06;102396.69;7396806;19;20006;-68
2021/12/15 10:17:55;;;;;;;27.80;15.77;;;;;;;7.38;99.21;102388.19;7396342;19;20492;-68
2021/12/15 10:20:28;;;;;;;30.33;16.08;;;;;;;7.40;99.03;102383.88;7395337;19;20036;-68
2021/12/15 10:23:02;;;;;;;30.40;16.83;;;;;;;7.43;99.34;102387.41;7395555;19;20078;-68
2021/12/15 10:25:33;;;;;;;26.05;15.85;;;;;;;7.45;99.10;102377.88;7394485;19;20438;-68
2021/12/15 10:28:06;;;;;;;22.90;13.80;;;;;;;7.49;98.69;102379.69;7396198;19;20078;-67
2021/12/15 10:30:38;;;;;;;23.35;13.77;;;;;;;7.54;98.16;102378.88;7396246;19;20026;-67
2021/12/15 10:33:10;;;;;;;24.20;14.07;;;;;;;7.59;98.67;102378.09;7396430;19;20022;-67
2021/12/15 10:35:44;;;;;;;30.45;17.63;;;;;;;7.65;98.34;102382.56;7393396;19;20026;-68
2021/12/15 10:38:20;;;;;;;25.90;14.13;;;;;;;7.71;98.24;102381.78;7395714;19;20048;-65
2021/12/15 10:40:53;;;;;;;22.95;14.57;;;;;;;7.73;97.73;102378.31;7393255;19;20494;-65
2021/12/15 10:43:23;;;;;;;24.50;14.13;;;;;;;7.77;97.83;102381.88;7395089;19;20074;-66
2021/12/15 10:45:55;;;;;;;24.90;14.18;;;;;;;7.79;97.27;102383.66;7394099;19;20074;-64
2021/12/15 10:48:35;;;;;;;24.60;14.13;;;;;;;7.83;97.52;102384.59;7395391;19;20182;-64
2021/12/15 10:51:23;;;;;;;22.77;12.98;;;;;;;7.86;96.91;102378.53;7393813;19;20015;-65
2021/12/15 10:53:55;;;;;;;22.77;13.57;;;;;;;7.89;97.48;102384.69;7393275;19;20081;-64
2021/12/15 10:56:26;;;;;;;22.65;12.55;;;;;;;7.92;97.74;102379.53;7395229;19;20014;-63
2021/12/15 10:58:58;;;;;;;20.55;12.55;;;;;;;7.95;97.44;102381.31;7394528;19;20424;-64
2021/12/15 11:01:41;;;;;;;22.95;13.00;;;;;;;7.98;97.61;102376.13;7392951;19;20018;-64
2021/12/15 11:04:30;;;;;;;22.10;12.68;;;;;;;8.03;96.54;102378.81;7392310;19;20420;-64
2021/12/15 11:07:29;;;;;;;19.85;12.15;;;;;;;8.05;96.49;102390.16;7394405;19;20031;-65
2021/12/15 11:10:02;;;;;;;18.30;11.68;;;;;;;8.08;97.52;102390.22;7394245;19;20015;-66
2021/12/15 11:12:34;;;;;;;19.02;12.55;;;;;;;8.10;97.76;102391.09;7394954;19;20014;-68
2021/12/15 11:15:08;;;;;;;19.80;12.32;;;;;;;8.12;97.80;102398.09;7393527;19;20086;-66
2021/12/15 11:17:38;;;;;;;22.25;12.50;;;;;;;8.15;97.51;102394.66;7392992;19;20015;-65
2021/12/15 11:20:13;;;;;;;18.08;11.10;;;;;;;8.17;97.58;102390.34;7393751;19;20087;-66
2021/12/15 11:22:51;;;;;;;15.32;10.13;;;;;;;8.22;97.91;102391.28;7393135;19;20082;-65
2021/12/15 11:25:24;;;;;;;14.07;9.15;;;;;;;8.26;96.93;102393.06;7392345;19;20082;-65
2021/12/15 11:27:55;;;;;;;13.40;8.68;;;;;;;8.30;96.69;102389.66;7391111;19;20515;-66
2021/12/15 11:30:28;;;;;;;12.07;8.50;;;;;;;8.35;96.40;102388.84;7393835;19;20027;-65
2021/12/15 11:32:59;;;;;;;12.73;8.43;;;;;;;8.39;95.87;102383.69;7392519;19;20480;-65
2021/12/15 11:35:31;;;;;;;11.70;8.18;;;;;;;8.43;95.23;102384.63;7392494;19;20077;-65
2021/12/15 11:38:06;;;;;;;13.20;8.38;;;;;;;8.48;96.39;102390.81;7398954;19;20086;-65
2021/12/15 11:40:41;;;;;;;10.95;7.95;;;;;;;8.53;95.54;102378.66;7402026;19;20022;-65
2021/12/15 11:43:11;;;;;;;12.15;7.85;;;;;;;8.57;95.44;102380.47;7401892;19;20035;-66
2021/12/15 11:45:43;;;;;;;10.35;7.60;;;;;;;8.63;96.07;102379.63;7398779;19;20078;-69
2021/12/15 11:48:22;;;;;;;10.55;7.80;;;;;;;8.68;96.37;102379.72;7401144;19;20421;-66
2021/12/15 11:50:54;;;;;;;10.75;7.43;;;;;;;8.73;94.75;102375.41;7401143;19;20073;-65
2021/12/15 11:53:49;;;;;;;11.23;7.95;;;;;;;8.82;93.92;102370.31;7401685;19;20074;-65
2021/12/15 11:56:28;;;;;;;10.77;7.43;;;;;;;8.88;94.19;102372.97;7400158;19;20090;-65
2021/12/15 11:59:05;;;;;;;9.80;6.78;;;;;;;8.92;94.47;102368.66;7402795;19;20085;-65
2021/12/15 12:01:51;;;;;;;8.75;6.63;;;;;;;8.95;93.98;102369.56;7401543;19;20085;-65
2021/12/15 12:04:26;;;;;;;9.18;6.65;;;;;;;9.02;93.71;102360.03;7398481;19;20100;-64
2021/12/15 12:06:57;;;;;;;7.57;6.00;;;;;;;9.06;93.15;102363.56;7401699;19;20078;-65
2021/12/15 12:09:28;;;;;;;9.52;6.60;;;;;;;9.08;92.71;102370.56;7397560;19;20446;-63
2021/12/15 12:11:59;;;;;;;8.55;6.00;;;;;;;9.06;89.74;102355.72;7400497;19;20486;-64
2021/12/15 12:14:43;;;;;;;8.55;6.30;;;;;;;9.04;92.17;102360.06;7397231;19;20424;-64
2021/12/15 12:17:15;;;;;;;9.10;6.07;;;;;;;9.02;92.55;102357.41;7396831;19;20029;-64
2021/12/15 12:19:47;;;;;;;10.18;6.63;;;;;;;9.02;92.33;102356.53;7397074;19;20034;-63
2021/12/15 12:22:17;;;;;;;10.02;6.20;;;;;;;9.00;92.01;102353.91;7395736;19;20035;-63
2021/12/15 12:24:53;;;;;;;9.05;6.32;;;;;;;8.98;92.36;102347.78;7395753;19;20074;-62
2021/12/15 12:27:23;;;;;;;10.05;6.97;;;;;;;9.00;92.88;102347.78;7399175;19;20226;-63
2021/12/15 12:29:53;;;;;;;10.52;7.20;;;;;;;9.00;92.71;102351.31;7399173;19;20035;-63
2021/12/15 12:32:23;;;;;;;12.65;8.15;;;;;;;9.00;93.31;102348.69;7396017;19;20025;-64